Time;durP1;ratioP1;P1;durP2;ratioP2;P2;SDS_P1;SDS_P2;PMS_P1;PMS_P2;Temp;Humidity;BMP_temperature;BMP_pressure;BME280_temperature;BME280_humidity;BME280_pressure;Samples;Min_cycle;Max_cycle;Signal;HPM_P1;HPM_P2
2023/03/09 00:03:24;;;;;;;16.98;6.45;;;;;;;15.55;85.36;99922.66;10297352;28;96747;-75
2023/03/09 00:08:29;;;;;;;19.80;6.30;;;;;;;15.58;84.94;99922.44;10298009;28;96643;-75
2023/03/09 00:13:32;;;;;;;21.10;6.70;;;;;;;15.62;84.82;99918.66;10296910;28;96725;-75
2023/03/09 00:18:37;;;;;;;20.67;7.25;;;;;;;15.58;85.07;99913.66;10297355;28;96797;-75
2023/03/09 00:23:40;;;;;;;;;;;;;;;15.56;85.63;99931.47;10298009;28;96841;-75
2023/03/09 00:28:43;;;;;;;24.00;6.72;;;;;;;15.54;85.11;99913.00;10297215;28;97143;-75
2023/03/09 00:33:49;;;;;;;19.95;6.75;;;;;;;15.55;85.48;99933.25;10324033;28;96873;-75
2023/03/09 00:38:53;;;;;;;21.58;6.75;;;;;;;15.57;85.58;99930.50;10334690;28;96495;-75
2023/03/09 00:43:57;;;;;;;19.13;6.20;;;;;;;15.49;85.23;99932.81;10296127;28;97261;-75
2023/03/09 00:49:02;;;;;;;15.27;6.38;;;;;;;15.10;86.50;99922.91;10297791;28;96645;-75
2023/03/09 00:54:06;;;;;;;20.25;6.40;;;;;;;15.21;86.06;99919.59;10305946;28;96765;-75
2023/03/09 00:59:10;;;;;;;19.38;6.82;;;;;;;15.20;85.61;99915.25;10314448;28;96581;-75
2023/03/09 01:04:15;;;;;;;14.80;5.90;;;;;;;15.22;85.47;99911.53;10303401;28;96807;-75
2023/03/09 01:09:18;;;;;;;16.20;5.43;;;;;;;15.27;85.26;99917.44;10302500;28;97230;-76
2023/03/09 01:14:21;;;;;;;15.18;5.80;;;;;;;15.23;85.74;99905.31;10303212;28;96651;-75
2023/03/09 01:19:26;;;;;;;16.10;5.70;;;;;;;15.36;85.13;99905.38;10302601;28;96998;-75
2023/03/09 01:24:29;;;;;;;;;;;;;;;15.31;85.41;99907.47;10303455;28;96620;-75
2023/03/09 01:29:32;;;;;;;18.13;6.03;;;;;;;15.21;85.85;99917.81;10302516;28;96553;-75
2023/03/09 01:34:36;;;;;;;15.68;5.63;;;;;;;15.22;85.76;99926.59;10301972;28;96797;-75
2023/03/09 01:39:39;;;;;;;16.40;5.60;;;;;;;15.25;85.73;99929.06;10300159;28;96803;-75
2023/03/09 01:44:43;;;;;;;15.02;5.60;;;;;;;15.27;85.93;99935.97;10301747;28;97085;-75
2023/03/09 01:49:50;;;;;;;21.58;5.93;;;;;;;15.23;85.80;99937.13;10301069;28;97067;-75
2023/03/09 01:54:58;;;;;;;14.90;5.32;;;;;;;15.28;85.68;99937.69;10301143;28;96700;-75
2023/03/09 02:00:07;;;;;;;15.25;5.82;;;;;;;15.21;85.91;99943.44;10299469;28;96724;-75
2023/03/09 02:05:14;;;;;;;11.98;4.35;;;;;;;15.36;85.38;99940.69;10300890;28;96816;-75
2023/03/09 02:10:23;;;;;;;13.98;4.15;;;;;;;15.39;84.60;99940.50;10300485;28;96818;-75
2023/03/09 02:15:27;;;;;;;13.55;3.92;;;;;;;15.44;84.21;99940.22;10301379;28;96735;-75
2023/03/09 02:20:37;;;;;;;13.85;4.60;;;;;;;15.45;83.27;99937.47;10300318;28;96988;-75
2023/03/09 02:25:48;;;;;;;10.43;3.53;;;;;;;15.47;83.33;99938.22;10300233;28;96566;-75
2023/03/09 02:30:54;;;;;;;14.23;3.97;;;;;;;15.51;82.90;99933.56;10298761;28;96986;-75
2023/03/09 02:35:59;;;;;;;9.98;4.00;;;;;;;15.54;82.61;99925.41;10300172;28;96664;-75
2023/03/09 02:41:05;;;;;;;13.88;3.88;;;;;;;15.53;82.13;99903.34;10298953;28;96848;-75
2023/03/09 02:46:09;;;;;;;16.85;4.00;;;;;;;15.42;83.00;99905.00;10299877;28;96721;-75
2023/03/09 02:51:13;;;;;;;12.55;4.10;;;;;;;15.36;82.99;99898.28;10299815;28;96905;-75
2023/03/09 02:56:16;;;;;;;14.97;3.93;;;;;;;15.34;83.04;99904.63;10300106;28;96794;-75
2023/03/09 03:01:21;;;;;;;15.70;3.60;;;;;;;15.43;82.58;99904.91;10299081;28;96683;-75
2023/03/09 03:06:24;;;;;;;12.73;3.38;;;;;;;15.45;82.17;99900.34;10299684;28;96675;-75
2023/03/09 03:11:27;;;;;;;9.48;3.22;;;;;;;15.48;81.45;99894.84;10298554;28;96998;-75
2023/03/09 03:16:34;;;;;;;10.70;3.10;;;;;;;15.49;81.46;99896.53;10338716;28;96735;-75
2023/03/09 03:21:37;;;;;;;9.23;3.00;;;;;;;15.44;82.09;99895.16;10338630;28;97017;-75
2023/03/09 03:26:40;;;;;;;12.57;3.35;;;;;;;15.43;81.76;99899.59;10339183;28;96776;-75
2023/03/09 03:31:45;;;;;;;10.50;3.08;;;;;;;15.41;81.33;99921.84;10312740;28;97492;-75
2023/03/09 03:36:48;;;;;;;11.13;2.90;;;;;;;15.45;80.96;99921.56;10298341;28;96658;-75
2023/03/09 03:41:52;;;;;;;10.65;2.95;;;;;;;15.46;80.21;99933.00;10297469;28;97076;-75
2023/03/09 03:46:56;;;;;;;9.52;2.78;;;;;;;15.43;80.13;99928.75;10298193;28;96795;-75
2023/03/09 03:51:59;;;;;;;10.70;2.35;;;;;;;15.44;79.91;99919.84;10297690;28;96672;-75
2023/03/09 03:57:03;;;;;;;9.77;2.88;;;;;;;15.44;79.84;99909.22;10320718;28;96797;-75
2023/03/09 04:02:08;;;;;;;9.60;2.38;;;;;;;15.48;79.78;99899.28;10338192;28;96639;-75
2023/03/09 04:07:11;;;;;;;11.02;2.63;;;;;;;15.42;80.28;99903.22;10300531;28;96568;-75
2023/03/09 04:12:14;;;;;;;11.13;3.13;;;;;;;15.36;80.21;99895.63;10296224;28;96754;-75
2023/03/09 04:17:18;;;;;;;8.88;2.63;;;;;;;15.37;79.98;99901.78;10296878;28;96708;-75
2023/03/09 04:22:22;;;;;;;9.65;2.50;;;;;;;15.36;80.50;99913.34;10297487;28;96733;-75
2023/03/09 04:27:25;;;;;;;12.38;2.80;;;;;;;15.35;80.34;99924.91;10304252;28;96672;-75
2023/03/09 04:32:29;;;;;;;16.20;3.20;;;;;;;15.23;81.34;99930.94;10304169;28;96949;-76
2023/03/09 04:37:33;;;;;;;14.77;2.97;;;;;;;15.16;82.00;99934.94;10311786;28;96697;-75
2023/03/09 04:42:36;;;;;;;10.15;2.88;;;;;;;15.15;81.82;99942.03;10339228;28;96870;-75
2023/03/09 04:47:40;;;;;;;10.00;2.80;;;;;;;15.10;81.66;99936.16;10340241;28;96731;-75
2023/03/09 04:52:43;;;;;;;10.35;2.60;;;;;;;15.01;81.77;99922.66;10339018;28;96546;-75
2023/03/09 04:57:47;;;;;;;9.30;2.60;;;;;;;14.96;82.43;99933.53;10338259;28;96660;-76
2023/03/09 05:02:51;;;;;;;8.68;2.45;;;;;;;14.94;81.86;99940.72;10338161;28;96880;-75
2023/03/09 05:07:55;;;;;;;11.55;2.97;;;;;;;14.86;81.21;99947.44;10338823;28;96671;-75
2023/03/09 05:12:58;;;;;;;12.43;2.60;;;;;;;14.85;81.51;99945.75;10337600;28;96729;-75
2023/03/09 05:18:02;;;;;;;11.95;2.90;;;;;;;14.78;81.18;99924.94;10338228;28;96817;-75
2023/03/09 05:23:06;;;;;;;14.52;3.20;;;;;;;14.81;80.73;99915.94;10338200;28;96705;-75
2023/03/09 05:28:11;;;;;;;12.50;3.40;;;;;;;14.79;80.17;99920.50;10332487;28;96816;-75
2023/03/09 05:33:15;;;;;;;11.27;3.00;;;;;;;14.77;79.97;99932.97;10296727;28;96650;-75
2023/03/09 05:38:19;;;;;;;10.13;2.72;;;;;;;14.73;80.49;99936.78;10297300;28;96799;-75
2023/03/09 05:43:22;;;;;;;13.50;2.90;;;;;;;14.71;80.70;99936.84;10295958;28;96833;-75
2023/03/09 05:48:26;;;;;;;15.13;2.95;;;;;;;14.82;79.69;99941.47;10327851;28;96725;-75
2023/03/09 05:53:30;;;;;;;11.23;2.53;;;;;;;14.85;79.52;99951.06;10336804;28;96792;-75
2023/03/09 05:58:33;;;;;;;12.93;3.08;;;;;;;14.88;79.37;99972.91;10337057;28;96689;-75
2023/03/09 06:03:37;;;;;;;13.10;2.67;;;;;;;14.87;79.17;99976.47;10336030;28;96918;-75
2023/03/09 06:08:40;;;;;;;15.10;3.17;;;;;;;14.87;79.08;99987.09;10336933;28;96623;-75
2023/03/09 06:13:44;;;;;;;14.00;3.25;;;;;;;14.90;78.74;99973.66;10336465;28;96806;-75
2023/03/09 06:18:48;;;;;;;12.60;2.90;;;;;;;14.90;78.81;99991.34;10335378;28;97010;-75
2023/03/09 06:23:54;;;;;;;11.95;3.25;;;;;;;14.97;78.63;99993.53;10336305;28;96571;-75
2023/03/09 06:28:58;;;;;;;12.30;2.92;;;;;;;14.96;78.49;99999.78;10324830;28;96648;-75
2023/03/09 06:34:02;;;;;;;11.93;3.47;;;;;;;14.90;79.17;99986.91;10294648;28;96672;-75
2023/03/09 06:39:05;;;;;;;12.05;3.13;;;;;;;14.83;79.39;100002.31;10295079;28;96698;-75
2023/03/09 06:44:09;;;;;;;11.77;2.85;;;;;;;14.88;79.18;99999.41;10292936;28;96738;-75
2023/03/09 06:49:13;;;;;;;13.63;3.08;;;;;;;14.90;78.67;99999.31;10293766;28;97607;-75
2023/03/09 06:54:17;;;;;;;15.27;3.50;;;;;;;14.90;78.41;100004.59;10294500;28;96749;-75
2023/03/09 06:59:20;;;;;;;16.25;3.72;;;;;;;14.88;78.84;100015.28;10332358;28;96652;-75
2023/03/09 07:04:24;;;;;;;18.50;3.55;;;;;;;14.94;78.34;100006.97;10334931;28;96643;-75
2023/03/09 07:09:28;;;;;;;13.27;3.70;;;;;;;15.04;78.04;100020.50;10334672;28;96633;-75
2023/03/09 07:14:31;;;;;;;16.40;3.70;;;;;;;15.07;77.89;100021.19;10293108;28;96782;-75
2023/03/09 07:19:36;;;;;;;12.85;2.85;;;;;;;15.18;77.73;100023.16;10294063;28;96688;-75
2023/03/09 07:24:39;;;;;;;;;;;;;;;15.09;77.10;100029.03;10293668;28;97325;-75
2023/03/09 07:29:42;;;;;;;15.15;3.60;;;;;;;15.19;77.80;100025.72;10292723;28;97627;-75
2023/03/09 07:34:47;;;;;;;17.05;3.20;;;;;;;15.25;78.18;100019.19;10291988;28;96645;-75
2023/03/09 07:39:50;;;;;;;12.80;3.78;;;;;;;15.46;76.86;100008.09;10292283;28;96771;-75
2023/03/09 07:44:53;;;;;;;13.35;3.40;;;;;;;15.87;76.06;99989.53;10303354;28;97238;-75
2023/03/09 07:49:58;;;;;;;11.98;2.70;;;;;;;16.50;73.64;99969.34;10333339;28;96717;-75
2023/03/09 07:55:02;;;;;;;15.35;3.10;;;;;;;16.72;72.30;99974.03;10333332;28;96734;-75
2023/03/09 08:00:10;;;;;;;9.90;2.40;;;;;;;16.46;72.04;99982.94;10331652;28;96894;-75
2023/03/09 08:05:16;;;;;;;13.98;3.08;;;;;;;16.27;72.08;99988.59;10332581;28;96860;-75
2023/03/09 08:10:20;;;;;;;15.90;3.45;;;;;;;16.13;73.22;99996.66;10333465;28;96684;-75
2023/03/09 08:15:24;;;;;;;13.52;3.40;;;;;;;16.12;72.12;99996.72;10333248;28;96826;-75
2023/03/09 08:20:28;;;;;;;16.58;3.85;;;;;;;16.08;71.69;99989.94;10331761;28;97044;-75
2023/03/09 08:25:32;;;;;;;15.10;3.38;;;;;;;16.05;71.89;99987.50;10331759;28;96939;-75
2023/03/09 08:30:36;;;;;;;12.52;3.38;;;;;;;16.07;72.01;100005.00;10332477;28;96883;-75
2023/03/09 08:35:40;;;;;;;13.80;3.28;;;;;;;15.96;73.70;100004.00;10323224;28;96739;-75
2023/03/09 08:40:44;;;;;;;19.95;3.55;;;;;;;15.92;73.52;100006.00;10290535;28;96850;-75
2023/03/09 08:45:48;;;;;;;17.05;3.53;;;;;;;15.89;73.75;100009.69;10290911;28;97628;-75
2023/03/09 08:50:52;;;;;;;13.32;3.65;;;;;;;15.82;74.65;99995.13;10291088;28;96676;-76
2023/03/09 08:55:56;;;;;;;16.15;3.45;;;;;;;16.74;72.21;99988.06;10291592;28;96637;-76
2023/03/09 09:01:00;;;;;;;11.75;3.72;;;;;;;16.81;71.15;99984.00;10291518;28;96658;-76
2023/03/09 09:06:07;;;;;;;15.27;4.20;;;;;;;16.24;73.21;100002.06;10290766;28;96658;-76
2023/03/09 09:11:13;;;;;;;16.75;4.38;;;;;;;16.10;74.70;99996.00;10295025;28;96757;-76
2023/03/09 09:16:17;;;;;;;15.85;3.15;;;;;;;15.95;75.20;100000.50;10296241;28;96679;-76
2023/03/09 09:21:21;;;;;;;13.65;3.13;;;;;;;16.12;74.49;99992.25;10297050;28;96810;-76
2023/03/09 09:26:25;;;;;;;16.02;4.43;;;;;;;16.07;75.30;99994.38;10303230;28;96860;-75
2023/03/09 09:31:29;;;;;;;15.38;3.92;;;;;;;16.19;74.67;99998.88;10297018;28;96822;-76
2023/03/09 09:36:35;;;;;;;15.18;3.83;;;;;;;16.52;73.47;100006.41;10296886;28;96574;-76
2023/03/09 09:41:41;;;;;;;13.30;4.18;;;;;;;16.80;73.16;99996.47;10295909;28;97415;-75
2023/03/09 09:46:46;;;;;;;15.65;3.70;;;;;;;16.70;73.00;99997.19;10296874;28;96629;-76
2023/03/09 09:52:09;;;;;;;19.63;5.03;;;;;;;16.43;74.00;99988.47;10296880;28;96791;-76
2023/03/09 09:57:18;;;;;;;17.10;4.20;;;;;;;16.52;73.91;99971.88;10312813;28;96695;-75
2023/03/09 10:02:43;;;;;;;17.17;3.67;;;;;;;16.76;74.04;99994.09;10313853;28;96664;-75
2023/03/09 10:07:49;;;;;;;17.63;4.22;;;;;;;16.57;74.97;99991.00;10294761;28;96560;-75
2023/03/09 10:12:52;;;;;;;20.95;4.85;;;;;;;16.06;78.32;100021.03;10295457;28;96965;-76
2023/03/09 10:17:59;;;;;;;20.60;5.25;;;;;;;15.76;80.39;100015.91;10295881;28;96593;-76
2023/03/09 10:23:18;;;;;;;18.33;4.88;;;;;;;15.78;82.15;100049.38;10294148;28;96886;-76
2023/03/09 10:28:25;;;;;;;16.88;4.00;;;;;;;15.96;81.47;100065.03;10294577;28;96913;-76
2023/03/09 10:33:39;;;;;;;16.25;3.15;;;;;;;16.03;80.87;100053.91;10294895;28;96854;-75
2023/03/09 10:38:44;;;;;;;14.00;4.28;;;;;;;15.89;80.67;100060.13;10294565;28;97145;-76
2023/03/09 10:43:48;;;;;;;18.45;4.93;;;;;;;15.84;80.20;100093.19;10294723;28;96619;-76
2023/03/09 10:49:10;;;;;;;21.75;5.82;;;;;;;15.94;79.81;100089.88;10294252;28;96707;-76
2023/03/09 10:54:27;;;;;;;18.02;4.53;;;;;;;16.81;76.29;100100.94;10294795;28;96673;-76
2023/03/09 10:59:31;;;;;;;24.42;5.35;;;;;;;17.52;74.65;100119.97;10292682;28;96797;-76
2023/03/09 11:04:36;;;;;;;22.93;5.37;;;;;;;17.15;74.38;100120.78;10293775;28;96590;-75
2023/03/09 11:09:52;;;;;;;18.95;4.90;;;;;;;16.94;74.04;100121.28;10293647;28;96808;-76
2023/03/09 11:14:57;;;;;;;18.48;4.57;;;;;;;16.98;73.77;100128.09;10293843;28;96965;-76
2023/03/09 11:20:22;;;;;;;20.33;4.32;;;;;;;16.71;75.25;100143.25;10293050;28;96805;-75
2023/03/09 11:25:46;;;;;;;20.43;5.17;;;;;;;16.45;76.30;100149.41;10299727;28;96778;-76
2023/03/09 11:30:52;;;;;;;24.57;5.23;;;;;;;16.50;76.31;100155.28;10293201;28;96849;-76
2023/03/09 11:35:56;;;;;;;22.35;5.22;;;;;;;16.43;76.56;100163.75;10293678;28;97068;-76
2023/03/09 11:41:08;;;;;;;24.53;5.20;;;;;;;16.19;77.77;100167.94;10292140;28;96771;-76
2023/03/09 11:46:15;;;;;;;22.42;5.32;;;;;;;16.30;78.27;100181.38;10293247;28;96645;-76
2023/03/09 11:51:26;;;;;;;21.42;5.07;;;;;;;16.28;78.17;100180.63;10291474;28;97135;-76
2023/03/09 11:56:34;;;;;;;21.10;5.57;;;;;;;16.11;79.57;100197.63;10292623;28;96772;-76
2023/03/09 12:01:43;;;;;;;28.48;6.32;;;;;;;15.90;81.21;100210.44;10292310;28;96659;-76
2023/03/09 12:06:54;;;;;;;20.17;4.80;;;;;;;15.99;80.98;100214.34;10292183;28;96614;-76
2023/03/09 12:12:03;;;;;;;16.98;4.47;;;;;;;16.80;78.68;100208.22;10292103;28;96599;-76
2023/03/09 12:17:15;;;;;;;20.75;5.63;;;;;;;16.68;79.62;100240.91;10292482;28;97249;-75
2023/03/09 12:22:24;;;;;;;28.70;6.03;;;;;;;16.52;78.90;100248.13;10291780;28;97492;-76
2023/03/09 12:27:31;;;;;;;21.48;5.38;;;;;;;17.11;77.83;100261.06;10292253;28;96832;-76
2023/03/09 12:32:40;;;;;;;26.40;6.63;;;;;;;16.90;77.05;100281.06;10291245;28;98175;-75
2023/03/09 12:38:20;;;;;;;19.88;5.65;;;;;;;17.25;75.92;100274.28;10291308;28;96696;-76
2023/03/09 12:43:54;;;;;;;27.95;7.13;;;;;;;17.43;76.34;100277.53;10284365;28;97903;-76
2023/03/09 12:48:58;;;;;;;19.93;5.90;;;;;;;17.84;73.97;100299.56;10298206;28;96618;-76
2023/03/09 12:54:06;;;;;;;23.80;5.72;;;;;;;18.89;71.35;100289.31;10335121;28;96744;-75
2023/03/09 12:59:19;;;;;;;25.98;5.82;;;;;;;18.23;70.91;100286.13;10338600;28;96648;-76
2023/03/09 13:04:26;;;;;;;25.77;6.03;;;;;;;18.27;71.65;100290.28;10338580;28;96834;-76
2023/03/09 13:09:36;;;;;;;23.65;5.97;;;;;;;19.99;67.94;100285.41;10314321;28;96713;-76
2023/03/09 13:15:21;;;;;;;23.50;5.60;;;;;;;21.80;61.86;100270.47;10297303;28;96833;-76
2023/03/09 13:20:33;;;;;;;19.45;5.22;;;;;;;22.29;60.21;100266.13;10297933;28;97342;-76
2023/03/09 13:25:43;;;;;;;23.20;5.38;;;;;;;21.43;59.25;100276.25;10297534;28;96667;-76
2023/03/09 13:30:49;;;;;;;24.50;6.50;;;;;;;20.07;63.05;100278.50;10296871;28;96727;-76
2023/03/09 13:35:56;;;;;;;25.23;6.07;;;;;;;19.77;64.40;100270.19;10295704;28;96932;-76
2023/03/09 13:41:03;;;;;;;22.08;5.80;;;;;;;21.60;60.23;100271.31;10295702;28;97702;-76
2023/03/09 13:46:20;;;;;;;23.90;5.53;;;;;;;20.58;60.77;100286.09;10296372;28;96725;-76
2023/03/09 13:51:32;;;;;;;28.05;5.78;;;;;;;19.91;62.68;100278.00;10296370;28;97031;-76
2023/03/09 13:56:35;;;;;;;21.73;5.75;;;;;;;19.09;65.04;100290.53;10294732;28;96695;-76
2023/03/09 14:01:40;;;;;;;23.85;5.78;;;;;;;20.62;61.52;100293.72;10295703;28;96721;-76
2023/03/09 14:06:43;;;;;;;26.13;6.55;;;;;;;21.09;60.13;100277.34;10295516;28;96756;-76
2023/03/09 14:12:07;;;;;;;25.30;6.28;;;;;;;19.34;62.95;100285.06;10296163;28;96601;-76
2023/03/09 14:17:18;;;;;;;26.42;6.18;;;;;;;19.35;64.55;100286.78;10295089;28;96750;-76
2023/03/09 14:22:26;;;;;;;28.75;6.82;;;;;;;18.79;65.48;100292.78;10295024;28;96794;-76
2023/03/09 14:27:32;;;;;;;24.75;6.70;;;;;;;19.39;64.39;100317.59;10293938;28;97227;-75
2023/03/09 14:32:37;;;;;;;31.05;7.05;;;;;;;19.08;65.16;100313.69;10294699;28;96747;-76
2023/03/09 14:37:40;;;;;;;26.60;6.68;;;;;;;18.37;66.72;100315.31;10294552;28;96778;-75
2023/03/09 14:42:43;;;;;;;25.73;7.20;;;;;;;18.59;67.25;100322.69;10294072;28;96906;-75
2023/03/09 14:47:54;;;;;;;31.88;7.65;;;;;;;18.78;67.36;100355.06;10294444;28;98517;-75
2023/03/09 14:52:58;;;;;;;27.67;6.28;;;;;;;20.32;63.38;100302.34;10293894;28;96815;-76
2023/03/09 14:58:01;;;;;;;21.10;5.70;;;;;;;19.38;63.35;100365.75;10294185;28;96716;-75
2023/03/09 15:03:07;;;;;;;25.75;6.57;;;;;;;18.53;65.60;100357.75;10294722;28;97112;-76
2023/03/09 15:08:11;;;;;;;29.55;7.45;;;;;;;18.62;65.82;100378.44;10293483;28;96851;-75
2023/03/09 15:13:14;;;;;;;24.43;6.03;;;;;;;19.10;64.57;100361.59;10293343;28;97040;-75
2023/03/09 15:18:19;;;;;;;24.00;5.22;;;;;;;18.54;64.85;100370.97;10292194;28;96678;-75
2023/03/09 15:23:22;;;;;;;27.30;6.80;;;;;;;19.00;64.00;100387.22;10299328;28;96824;-76
2023/03/09 15:28:25;;;;;;;25.20;6.57;;;;;;;18.18;65.45;100374.38;10293645;28;96723;-76
2023/03/09 15:33:30;;;;;;;28.48;7.22;;;;;;;18.58;64.85;100376.94;10293141;28;96746;-76
2023/03/09 15:38:33;;;;;;;;;;;;;;;18.25;65.74;100366.78;10293324;28;97131;-75
2023/03/09 15:43:37;;;;;;;31.15;7.20;;;;;;;18.11;65.43;100377.53;10292875;28;96851;-75
2023/03/09 15:48:42;;;;;;;27.60;6.85;;;;;;;18.38;65.42;100359.69;10293274;28;96871;-75
2023/03/09 15:53:46;;;;;;;29.30;7.82;;;;;;;18.74;64.20;100375.78;10293368;28;96553;-75
2023/03/09 15:58:50;;;;;;;36.80;8.32;;;;;;;18.33;65.03;100371.59;10295421;28;96741;-76
2023/03/09 16:03:55;;;;;;;25.98;6.45;;;;;;;18.04;64.82;100379.78;10292137;28;96710;-75
2023/03/09 16:08:58;;;;;;;26.05;6.72;;;;;;;17.79;66.24;100389.53;10291006;28;96683;-75
2023/03/09 16:14:01;;;;;;;25.38;7.82;;;;;;;17.69;67.03;100412.41;10292303;28;96990;-75
2023/03/09 16:19:06;;;;;;;29.55;7.15;;;;;;;17.76;66.37;100430.50;10290929;28;97082;-75
2023/03/09 16:24:09;;;;;;;;;;;;;;;17.49;67.25;100429.66;10305382;28;96727;-75
2023/03/09 16:29:12;;;;;;;32.10;7.75;;;;;;;17.56;67.23;100435.44;10332788;28;96792;-76
2023/03/09 16:34:17;;;;;;;34.75;8.27;;;;;;;17.61;67.13;100447.50;10301863;28;97631;-76
2023/03/09 16:39:20;;;;;;;32.83;7.25;;;;;;;17.75;67.54;100463.41;10291064;28;96585;-75
2023/03/09 16:44:24;;;;;;;31.70;7.82;;;;;;;17.46;68.39;100474.22;10291948;28;96789;-76
2023/03/09 16:49:28;;;;;;;32.73;7.70;;;;;;;17.25;69.25;100473.78;10291361;28;97569;-76
2023/03/09 16:54:31;;;;;;;33.22;7.53;;;;;;;17.32;69.33;100461.78;10291210;28;96714;-76
2023/03/09 16:59:34;;;;;;;33.30;8.45;;;;;;;17.21;69.09;100445.66;10289867;28;97047;-76
2023/03/09 17:04:39;;;;;;;32.80;9.23;;;;;;;17.24;69.52;100447.28;10291105;28;96632;-76
2023/03/09 17:09:42;;;;;;;32.67;7.93;;;;;;;17.12;69.59;100467.50;10290452;28;96844;-75
2023/03/09 17:14:45;;;;;;;36.47;9.77;;;;;;;16.90;70.17;100464.47;10290568;28;96656;-75
2023/03/09 17:19:54;;;;;;;30.38;6.78;;;;;;;16.94;70.31;100456.25;10290449;28;96592;-75
2023/03/09 17:24:59;;;;;;;27.92;7.20;;;;;;;16.83;70.38;100448.06;10290302;28;96734;-76
2023/03/09 17:30:02;;;;;;;36.45;8.23;;;;;;;16.80;70.24;100458.03;10291105;28;96716;-76
2023/03/09 17:35:08;;;;;;;30.27;7.50;;;;;;;16.71;70.58;100455.94;10297534;28;96804;-75
2023/03/09 17:40:13;;;;;;;26.77;7.32;;;;;;;16.60;70.75;100466.38;10296710;28;97876;-76
2023/03/09 17:45:18;;;;;;;32.13;7.55;;;;;;;16.55;70.72;100471.13;10296564;28;96589;-75
2023/03/09 17:50:23;;;;;;;34.50;8.30;;;;;;;16.46;71.46;100467.19;10295688;28;96729;-76
2023/03/09 17:55:26;;;;;;;35.00;6.90;;;;;;;16.44;71.49;100470.91;10295947;28;96859;-76
2023/03/09 18:00:29;;;;;;;34.80;8.82;;;;;;;16.36;72.23;100473.97;10295549;28;96625;-76
2023/03/09 18:05:36;;;;;;;33.83;8.10;;;;;;;16.27;72.16;100469.22;10295828;28;96771;-75
2023/03/09 18:10:41;;;;;;;35.35;8.45;;;;;;;16.23;72.90;100464.19;10295293;28;96831;-76
2023/03/09 18:15:44;;;;;;;41.30;8.27;;;;;;;16.23;73.30;100470.34;10295403;28;96777;-76
2023/03/09 18:20:49;;;;;;;34.33;8.52;;;;;;;16.19;73.51;100476.78;10295097;28;96755;-76
2023/03/09 18:25:52;;;;;;;41.45;9.00;;;;;;;16.15;73.62;100495.66;10295600;28;96766;-76
2023/03/09 18:30:56;;;;;;;34.15;8.98;;;;;;;16.14;73.70;100497.44;10294914;28;96656;-76
2023/03/09 18:36:03;;;;;;;41.58;9.80;;;;;;;16.07;74.12;100505.84;10294718;28;96684;-75
2023/03/09 18:41:07;;;;;;;34.05;8.00;;;;;;;16.10;73.95;100533.06;10292431;28;96573;-75
2023/03/09 18:46:10;;;;;;;38.83;9.27;;;;;;;16.08;74.40;100548.25;10294482;28;96638;-76
2023/03/09 18:51:15;;;;;;;39.20;7.63;;;;;;;15.99;74.82;100537.28;10294012;28;96700;-75
2023/03/09 18:56:19;;;;;;;;;;;;;;;15.88;74.98;100557.34;10294308;28;96763;-75
2023/03/09 19:01:22;;;;;;;38.88;9.20;;;;;;;15.94;74.72;100561.44;10333718;28;98112;-75
2023/03/09 19:06:27;;;;;;;39.40;8.57;;;;;;;15.85;74.07;100570.78;10311362;28;96785;-75
2023/03/09 19:11:32;;;;;;;37.20;8.13;;;;;;;15.85;74.29;100576.09;10294095;28;96916;-76
2023/03/09 19:16:36;;;;;;;31.05;7.85;;;;;;;15.80;74.18;100569.34;10294423;28;97108;-75
2023/03/09 19:21:40;;;;;;;37.67;8.57;;;;;;;15.85;74.44;100588.50;10294280;28;96722;-75
2023/03/09 19:26:43;;;;;;;38.80;9.23;;;;;;;15.86;73.75;100596.38;10334506;28;97029;-75
2023/03/09 19:31:47;;;;;;;41.80;8.70;;;;;;;15.83;73.79;100593.03;10333262;28;96773;-76
2023/03/09 19:36:51;;;;;;;32.33;7.47;;;;;;;15.83;73.97;100616.91;10334180;28;96616;-76
2023/03/09 19:41:55;;;;;;;37.85;9.40;;;;;;;15.84;74.07;100608.00;10297251;28;96689;-76
2023/03/09 19:46:58;;;;;;;44.13;10.02;;;;;;;15.85;74.19;100615.03;10292826;28;96636;-76
2023/03/09 19:52:03;;;;;;;39.28;9.40;;;;;;;15.82;74.74;100613.41;10292701;28;96989;-75
2023/03/09 19:57:06;;;;;;;38.45;8.68;;;;;;;15.85;74.72;100629.19;10292928;28;96712;-75
2023/03/09 20:02:10;;;;;;;47.25;10.85;;;;;;;15.85;74.55;100625.66;10292269;28;96868;-75
2023/03/09 20:07:14;;;;;;;40.60;8.55;;;;;;;15.84;74.64;100608.00;10292904;28;96727;-76
2023/03/09 20:12:22;;;;;;;40.58;9.68;;;;;;;15.76;75.31;100631.47;10292529;28;97096;-76
2023/03/09 20:17:25;;;;;;;37.58;8.93;;;;;;;15.76;74.93;100644.72;10291903;28;96711;-75
2023/03/09 20:22:30;;;;;;;43.65;9.25;;;;;;;15.75;75.33;100656.28;10290255;28;96740;-75
2023/03/09 20:27:34;;;;;;;44.35;9.27;;;;;;;15.78;74.90;100654.34;10291615;28;97058;-75
2023/03/09 20:32:37;;;;;;;33.28;10.27;;;;;;;15.77;75.05;100660.56;10324663;28;96747;-75
2023/03/09 20:37:41;;;;;;;42.60;10.13;;;;;;;15.80;75.45;100678.13;10332369;28;96773;-75
2023/03/09 20:42:45;;;;;;;43.75;9.15;;;;;;;15.81;75.16;100688.66;10331478;28;96854;-75
2023/03/09 20:47:48;;;;;;;38.97;9.07;;;;;;;15.79;75.60;100679.91;10331116;28;96811;-76
2023/03/09 20:52:52;;;;;;;35.70;9.23;;;;;;;15.76;74.98;100700.44;10331966;28;96893;-76
2023/03/09 20:57:56;;;;;;;40.00;8.85;;;;;;;15.76;75.29;100700.44;10332738;28;96653;-76
2023/03/09 21:02:59;;;;;;;35.75;7.72;;;;;;;15.69;75.00;100713.19;10330579;28;96654;-76
2023/03/09 21:08:05;;;;;;;46.17;9.88;;;;;;;15.73;74.89;100716.53;10337443;28;96602;-76
2023/03/09 21:13:09;;;;;;;35.88;9.90;;;;;;;15.74;75.58;100713.81;10337450;28;96760;-75
2023/03/09 21:18:13;;;;;;;45.35;9.75;;;;;;;15.70;75.46;100714.06;10338534;28;96635;-75
2023/03/09 21:23:17;;;;;;;44.45;9.80;;;;;;;15.72;75.50;100718.34;10315051;28;97441;-76
2023/03/09 21:28:21;;;;;;;41.17;9.18;;;;;;;15.66;75.76;100726.63;10297097;28;96841;-76
2023/03/09 21:33:24;;;;;;;45.70;8.95;;;;;;;15.74;76.24;100735.03;10296979;28;96640;-76
2023/03/09 21:38:30;;;;;;;41.45;9.30;;;;;;;15.68;76.18;100727.38;10297276;28;96876;-75
2023/03/09 21:43:33;;;;;;;39.97;9.27;;;;;;;15.73;75.93;100728.03;10296391;28;96615;-76
2023/03/09 21:48:36;;;;;;;44.15;9.35;;;;;;;15.71;76.55;100734.34;10297183;28;96652;-75
2023/03/09 21:53:51;;;;;;;40.72;8.80;;;;;;;15.74;76.66;100732.38;10296930;28;96789;-76
2023/03/09 21:58:56;;;;;;;42.20;8.73;;;;;;;15.72;76.19;100738.69;10312000;28;97504;-76
2023/03/09 22:03:59;;;;;;;38.53;8.35;;;;;;;15.67;76.65;100746.91;10336278;28;96506;-76
2023/03/09 22:09:05;;;;;;;44.17;9.38;;;;;;;15.67;76.46;100757.53;10337014;28;96573;-75
2023/03/09 22:14:08;;;;;;;46.97;8.50;;;;;;;15.66;76.18;100763.78;10307039;28;96744;-76
2023/03/09 22:19:13;;;;;;;39.17;9.63;;;;;;;15.68;76.58;100753.91;10294315;28;96824;-75
2023/03/09 22:24:17;;;;;;;40.28;9.23;;;;;;;15.63;76.70;100766.56;10334547;28;96847;-75
2023/03/09 22:29:21;;;;;;;41.95;8.75;;;;;;;15.66;76.95;100778.81;10321379;28;96780;-76
2023/03/09 22:34:24;;;;;;;36.50;8.10;;;;;;;15.70;76.51;100775.94;10294862;28;97003;-76
2023/03/09 22:39:28;;;;;;;39.72;8.60;;;;;;;15.65;76.93;100779.75;10295150;28;97390;-76
2023/03/09 22:44:32;;;;;;;42.85;9.27;;;;;;;15.66;76.58;100774.38;10294832;28;96929;-75
2023/03/09 22:49:38;;;;;;;40.38;8.73;;;;;;;15.66;76.94;100776.19;10294411;28;96685;-75
2023/03/09 22:54:45;;;;;;;46.38;9.80;;;;;;;15.58;76.76;100781.88;10293519;28;96587;-75
2023/03/09 22:59:48;;;;;;;46.35;10.48;;;;;;;15.60;77.17;100777.34;10295749;28;96686;-76
2023/03/09 23:04:51;;;;;;;34.85;8.23;;;;;;;15.53;76.52;100780.38;10307914;28;96837;-76
2023/03/09 23:09:56;;;;;;;38.17;7.85;;;;;;;15.53;76.30;100783.91;10293753;28;96714;-76
2023/03/09 23:14:59;;;;;;;34.50;8.93;;;;;;;15.52;76.45;100786.63;10293629;28;96810;-76
2023/03/09 23:20:02;;;;;;;37.00;7.43;;;;;;;15.52;76.21;100802.56;10298615;28;97332;-76